Time;durP1;ratioP1;P1;durP2;ratioP2;P2;SDS_P1;SDS_P2;PMS_P1;PMS_P2;Temp;Humidity;BMP_temperature;BMP_pressure;BME280_temperature;BME280_humidity;BME280_pressure;Samples;Min_cycle;Max_cycle;Signal;HPM_P1;HPM_P2
2022/08/15 00:01:36;;;;;;;4.30;1.38;;;;;;;-144.43;100.00;67396.00;5092901;28;20044;-59
2022/08/15 00:04:07;;;;;;;4.93;1.30;;;;;;;-144.43;100.00;67396.00;5092609;28;20225;-60
2022/08/15 00:06:41;;;;;;;4.95;1.15;;;;;;;-144.43;100.00;67396.00;5093726;28;20024;-60
2022/08/15 00:09:22;;;;;;;11.35;1.50;;;;;;;-144.43;100.00;67396.00;5086944;28;20051;-60
2022/08/15 00:11:53;;;;;;;6.40;1.40;;;;;;;-144.43;100.00;67396.00;5093194;28;20426;-59
2022/08/15 00:14:29;;;;;;;6.28;1.30;;;;;;;-144.43;100.00;67396.00;5091746;28;20032;-60
2022/08/15 00:16:59;;;;;;;3.15;1.17;;;;;;;-144.43;100.00;67396.00;5086248;28;20085;-59
2022/08/15 00:19:30;;;;;;;6.82;2.72;;;;;;;-144.43;100.00;67396.00;5077944;28;20048;-60
2022/08/15 00:22:01;;;;;;;5.07;1.75;;;;;;;-144.43;100.00;67396.00;5089942;28;20478;-59
2022/08/15 00:24:32;;;;;;;3.90;1.40;;;;;;;-144.43;100.00;67396.00;5092630;28;20036;-58
2022/08/15 00:27:01;;;;;;;5.00;1.20;;;;;;;-144.43;100.00;67396.00;5091892;28;20032;-59
2022/08/15 00:29:31;;;;;;;5.60;1.33;;;;;;;-144.43;100.00;67396.00;5092156;28;20031;-59
2022/08/15 00:31:59;;;;;;;4.47;1.27;;;;;;;-144.43;100.00;67396.00;5089573;28;20497;-60
2022/08/15 00:34:27;;;;;;;3.88;1.20;;;;;;;-144.43;100.00;67396.00;5093251;28;20050;-60
2022/08/15 00:36:54;;;;;;;3.90;1.13;;;;;;;-144.43;100.00;67396.00;5090682;28;20024;-60
2022/08/15 00:39:24;;;;;;;5.47;1.83;;;;;;;-144.43;100.00;67396.00;5093161;28;20063;-60
2022/08/15 00:41:52;;;;;;;7.95;1.52;;;;;;;-144.43;100.00;67396.00;5087916;28;20107;-58
2022/08/15 00:44:24;;;;;;;4.32;1.45;;;;;;;-144.43;100.00;67396.00;5090091;28;20028;-59
2022/08/15 00:46:54;;;;;;;6.05;1.38;;;;;;;-144.43;100.00;67396.00;5089715;28;20506;-59
2022/08/15 00:49:24;;;;;;;4.10;1.30;;;;;;;-144.43;100.00;67396.00;5091171;28;20032;-59
2022/08/15 00:51:59;;;;;;;5.13;1.50;;;;;;;-144.43;100.00;67396.00;5090824;28;20085;-60
2022/08/15 00:54:35;;;;;;;6.05;1.38;;;;;;;-144.43;100.00;67396.00;5090781;28;20043;-59
2022/08/15 00:57:08;;;;;;;5.05;1.38;;;;;;;-144.43;100.00;67396.00;5091994;28;20032;-60
2022/08/15 00:59:44;;;;;;;3.70;1.08;;;;;;;-144.43;100.00;67396.00;5090949;28;20043;-59
2022/08/15 01:02:15;;;;;;;14.43;2.40;;;;;;;-144.43;100.00;67396.00;5106667;28;20436;-60
2022/08/15 01:04:43;;;;;;;2.85;1.10;;;;;;;-144.43;100.00;67396.00;5091559;28;20160;-60
2022/08/15 01:07:10;;;;;;;5.30;1.35;;;;;;;-144.43;100.00;67396.00;5092202;28;20103;-60
2022/08/15 01:09:38;;;;;;;2.92;1.10;;;;;;;-144.43;100.00;67396.00;5090277;28;20047;-60
2022/08/15 01:12:16;;;;;;;3.90;1.40;;;;;;;-144.43;100.00;67396.00;5091942;28;20024;-59
2022/08/15 01:14:47;;;;;;;3.60;1.30;;;;;;;-144.43;100.00;67396.00;5073732;28;20032;-60
2022/08/15 01:17:16;;;;;;;3.65;1.00;;;;;;;-144.43;100.00;67396.00;5091474;28;20036;-59
2022/08/15 01:19:56;;;;;;;16.30;1.60;;;;;;;-144.43;100.00;67396.00;5089814;28;20439;-58
2022/08/15 01:22:54;;;;;;;5.28;1.40;;;;;;;-144.43;100.00;67396.00;5090920;28;20089;-58
2022/08/15 01:25:31;;;;;;;7.63;1.75;;;;;;;-144.43;100.00;67396.00;5078895;28;20044;-59
2022/08/15 01:28:18;;;;;;;7.70;2.00;;;;;;;-144.43;100.00;67396.00;5088265;28;20032;-59
2022/08/15 01:30:48;;;;;;;6.47;1.33;;;;;;;-144.43;100.00;67396.00;5091301;28;20040;-59
2022/08/15 01:33:16;;;;;;;4.60;1.30;;;;;;;-144.43;100.00;67396.00;5088884;28;20036;-58
2022/08/15 01:35:45;;;;;;;4.63;1.33;;;;;;;-144.43;100.00;67396.00;5102498;28;20032;-58
2022/08/15 01:38:32;;;;;;;4.88;1.20;;;;;;;-144.43;100.00;67396.00;5091475;28;20027;-59
2022/08/15 01:41:08;;;;;;;4.70;1.10;;;;;;;-144.43;100.00;67396.00;5081424;28;20036;-59
2022/08/15 01:43:43;;;;;;;6.80;1.38;;;;;;;-144.43;100.00;67396.00;5084479;28;20063;-59
2022/08/15 01:46:11;;;;;;;5.78;1.30;;;;;;;-144.43;100.00;67396.00;5096069;28;20478;-60
2022/08/15 01:48:50;;;;;;;4.85;1.25;;;;;;;-144.43;100.00;67396.00;5094956;28;20075;-59
2022/08/15 01:51:18;;;;;;;3.75;1.38;;;;;;;-144.43;100.00;67396.00;5091110;28;20042;-59
2022/08/15 01:53:54;;;;;;;4.07;1.30;;;;;;;-144.43;100.00;67396.00;5090174;28;20456;-58
2022/08/15 01:56:26;;;;;;;7.85;1.40;;;;;;;-144.43;100.00;67396.00;5097577;28;20067;-59
2022/08/15 01:58:53;;;;;;;6.72;1.30;;;;;;;-144.43;100.00;67396.00;5087887;28;20038;-60
2022/08/15 02:01:46;;;;;;;5.18;1.20;;;;;;;-144.43;100.00;67396.00;5082730;28;20095;-60
2022/08/15 02:04:17;;;;;;;6.40;1.23;;;;;;;-144.43;100.00;67396.00;5087060;28;20058;-59
2022/08/15 02:06:45;;;;;;;8.30;1.67;;;;;;;-144.43;100.00;67396.00;5091210;28;20097;-60
2022/08/15 02:09:19;;;;;;;8.23;1.90;;;;;;;-144.43;100.00;67396.00;5087875;28;20066;-60
2022/08/15 02:11:49;;;;;;;15.13;5.90;;;;;;;-144.43;100.00;67396.00;5090349;28;20092;-59
2022/08/15 02:14:20;;;;;;;8.35;1.70;;;;;;;-144.43;100.00;67396.00;5083764;28;20039;-59
2022/08/15 02:16:48;;;;;;;9.00;1.90;;;;;;;-144.43;100.00;67396.00;5083975;28;20039;-59
2022/08/15 02:19:17;;;;;;;8.23;1.88;;;;;;;-144.43;100.00;67396.00;5088791;28;20082;-60
2022/08/15 02:21:47;;;;;;;8.63;1.80;;;;;;;-144.43;100.00;67396.00;5086366;28;20036;-59
2022/08/15 02:24:18;;;;;;;10.88;2.38;;;;;;;-144.43;100.00;67396.00;5086276;28;20109;-60
2022/08/15 02:26:50;;;;;;;9.73;2.28;;;;;;;-144.43;100.00;67396.00;5091372;28;20452;-59
2022/08/15 02:29:17;;;;;;;26.05;13.32;;;;;;;-144.43;100.00;67396.00;5088607;28;20040;-59
2022/08/15 02:31:45;;;;;;;12.07;2.63;;;;;;;-144.43;100.00;67396.00;5089247;28;20482;-61
2022/08/15 02:34:13;;;;;;;8.50;2.95;;;;;;;-144.43;100.00;67396.00;5090086;28;20036;-59
2022/08/15 02:36:40;;;;;;;10.85;2.63;;;;;;;-144.43;100.00;67396.00;5081026;28;20127;-59
2022/08/15 02:39:10;;;;;;;10.10;2.50;;;;;;;-144.43;100.00;67396.00;5092999;28;20024;-61
2022/08/15 02:41:42;;;;;;;10.10;2.38;;;;;;;-144.43;100.00;67396.00;5071775;28;20036;-60
2022/08/15 02:44:14;;;;;;;13.77;3.22;;;;;;;-144.43;100.00;67396.00;5092457;28;20059;-60
2022/08/15 02:46:43;;;;;;;10.55;2.47;;;;;;;-144.43;100.00;67396.00;5115991;28;20027;-60
2022/08/15 02:49:12;;;;;;;13.02;2.90;;;;;;;-144.43;100.00;67396.00;5087469;28;20070;-59
2022/08/15 02:51:41;;;;;;;11.40;3.08;;;;;;;-144.43;100.00;67396.00;5086325;28;20116;-60
2022/08/15 02:54:11;;;;;;;17.75;9.45;;;;;;;-144.43;100.00;67396.00;5093322;28;20020;-60
2022/08/15 02:56:38;;;;;;;10.05;2.40;;;;;;;-144.43;100.00;67396.00;5093400;28;20028;-60
2022/08/15 02:59:10;;;;;;;9.00;2.10;;;;;;;-144.43;100.00;67396.00;5092812;28;20394;-60
2022/08/15 03:01:41;;;;;;;9.30;3.95;;;;;;;-144.43;100.00;67396.00;5094475;28;20402;-60
2022/08/15 03:04:13;;;;;;;9.75;2.00;;;;;;;-144.43;100.00;67396.00;5094166;28;20035;-60
2022/08/15 03:06:45;;;;;;;13.50;4.25;;;;;;;-144.43;100.00;67396.00;5093384;28;20088;-60
2022/08/15 03:09:15;;;;;;;16.15;2.47;;;;;;;-144.43;100.00;67396.00;5092853;28;20032;-59
2022/08/15 03:12:04;;;;;;;11.90;2.33;;;;;;;-144.43;100.00;67396.00;5095369;28;20032;-60
2022/08/15 03:14:36;;;;;;;14.82;2.80;;;;;;;-144.43;100.00;67396.00;5094546;28;20086;-59
2022/08/15 03:17:09;;;;;;;15.25;2.00;;;;;;;-144.43;100.00;67396.00;5092905;28;20036;-59
2022/08/15 03:19:43;;;;;;;13.70;2.25;;;;;;;-144.43;100.00;67396.00;5093616;28;20036;-60
2022/08/15 03:22:13;;;;;;;17.60;2.72;;;;;;;-144.43;100.00;67396.00;5106541;27;20540;-60
2022/08/15 03:24:42;;;;;;;15.18;2.88;;;;;;;-144.43;100.00;67396.00;5089743;28;20500;-60
2022/08/15 03:27:10;;;;;;;12.30;2.42;;;;;;;-144.43;100.00;67396.00;5091634;28;20024;-60
2022/08/15 03:29:39;;;;;;;9.57;2.40;;;;;;;-144.43;100.00;67396.00;5091486;28;20371;-60
2022/08/15 03:32:12;;;;;;;12.82;2.60;;;;;;;-144.43;100.00;67396.00;5121233;27;20110;-60
2022/08/15 03:34:40;;;;;;;9.60;2.70;;;;;;;-144.43;100.00;67396.00;5092577;28;20069;-60
2022/08/15 03:37:07;;;;;;;14.23;2.40;;;;;;;-144.43;100.00;67396.00;5086975;28;20024;-60
2022/08/15 03:39:34;;;;;;;9.93;2.40;;;;;;;-144.43;100.00;67396.00;5082324;28;20040;-59
2022/08/15 03:42:08;;;;;;;6.63;2.17;;;;;;;-144.43;100.00;67396.00;5093491;28;20028;-60
2022/08/15 03:44:36;;;;;;;8.95;2.70;;;;;;;-144.43;100.00;67396.00;5093523;28;20509;-60
2022/08/15 03:47:04;;;;;;;8.95;2.58;;;;;;;-144.43;100.00;67396.00;5092393;28;20627;-60
2022/08/15 03:49:34;;;;;;;56.13;3.78;;;;;;;-144.43;100.00;67396.00;5094376;28;20558;-60
2022/08/15 03:52:06;;;;;;;10.15;2.65;;;;;;;-144.43;100.00;67396.00;5094111;28;20047;-60
2022/08/15 03:54:34;;;;;;;10.68;2.60;;;;;;;-144.43;100.00;67396.00;5093110;28;20032;-60
2022/08/15 03:57:00;;;;;;;12.00;2.30;;;;;;;-144.43;100.00;67396.00;5082378;28;20028;-59
2022/08/15 03:59:28;;;;;;;14.55;5.40;;;;;;;-144.43;100.00;67396.00;5081672;28;20128;-60
2022/08/15 04:01:55;;;;;;;16.13;3.13;;;;;;;-144.43;100.00;67396.00;5085832;28;20044;-60
2022/08/15 04:04:24;;;;;;;16.70;4.55;;;;;;;-144.43;100.00;67396.00;5093087;28;20036;-60
2022/08/15 04:06:52;;;;;;;12.10;2.50;;;;;;;-144.43;100.00;67396.00;5093235;28;20043;-59
2022/08/15 04:09:19;;;;;;;19.17;6.13;;;;;;;-144.43;100.00;67396.00;5073198;28;20040;-60
2022/08/15 04:11:48;;;;;;;8.95;2.78;;;;;;;-144.43;100.00;67396.00;5092229;28;20177;-60
2022/08/15 04:14:28;;;;;;;17.23;3.58;;;;;;;-144.43;100.00;67396.00;5092306;28;20028;-60
2022/08/15 04:16:59;;;;;;;16.05;4.10;;;;;;;-144.43;100.00;67396.00;5090856;28;20040;-60
2022/08/15 04:19:26;;;;;;;15.93;6.75;;;;;;;-144.43;100.00;67396.00;5092285;28;20036;-60
2022/08/15 04:21:53;;;;;;;20.00;6.07;;;;;;;-144.43;100.00;67396.00;5093780;28;20555;-59
2022/08/15 04:24:22;;;;;;;33.42;6.30;;;;;;;-144.43;100.00;67396.00;5096913;28;20027;-60
2022/08/15 04:26:50;;;;;;;31.42;4.60;;;;;;;-144.43;100.00;67396.00;5103050;27;20081;-60
2022/08/15 04:29:16;;;;;;;43.25;6.05;;;;;;;-144.43;100.00;67396.00;5096741;28;20132;-60
2022/08/15 04:31:44;;;;;;;20.92;5.47;;;;;;;-144.43;100.00;67396.00;5089948;28;20055;-59
2022/08/15 04:34:12;;;;;;;22.65;4.28;;;;;;;-144.43;100.00;67396.00;5089775;28;20020;-60
2022/08/15 04:36:41;;;;;;;17.20;3.30;;;;;;;-144.43;100.00;67396.00;5092198;28;20044;-61
2022/08/15 04:39:08;;;;;;;28.02;4.13;;;;;;;-144.43;100.00;67396.00;5125598;27;20478;-59
2022/08/15 04:41:44;;;;;;;40.92;5.68;;;;;;;-144.43;100.00;67396.00;5085404;28;20516;-59
2022/08/15 04:44:12;;;;;;;137.70;11.38;;;;;;;-144.43;100.00;67396.00;5086728;28;20061;-59
2022/08/15 04:46:39;;;;;;;161.57;12.88;;;;;;;-144.43;100.00;67396.00;5083926;28;20021;-59
2022/08/15 04:49:09;;;;;;;158.75;14.60;;;;;;;-144.43;100.00;67396.00;5091458;28;20501;-58
2022/08/15 04:51:37;;;;;;;310.30;25.83;;;;;;;-144.43;100.00;67396.00;5090593;28;20479;-59
2022/08/15 04:54:08;;;;;;;317.95;28.55;;;;;;;-144.43;100.00;67396.00;5093032;28;20031;-59
2022/08/15 04:56:37;;;;;;;383.95;30.88;;;;;;;-144.43;100.00;67396.00;5089926;28;20036;-60
2022/08/15 04:59:04;;;;;;;293.58;25.17;;;;;;;-144.43;100.00;67396.00;5089923;28;20027;-60
2022/08/15 05:01:33;;;;;;;375.05;30.40;;;;;;;-144.43;100.00;67396.00;5089849;28;20055;-59
2022/08/15 05:04:00;;;;;;;372.15;33.33;;;;;;;-144.43;100.00;67396.00;5091199;28;20055;-60
2022/08/15 05:06:28;;;;;;;501.10;48.38;;;;;;;-144.43;100.00;67396.00;5090309;28;20115;-60
2022/08/15 05:08:54;;;;;;;496.75;54.85;;;;;;;-144.43;100.00;67396.00;5090153;28;20032;-59
2022/08/15 05:11:23;;;;;;;539.40;59.75;;;;;;;-144.43;100.00;67396.00;5090496;28;20057;-60
2022/08/15 05:13:55;;;;;;;587.65;61.60;;;;;;;-144.43;100.00;67396.00;5090458;28;20039;-59
2022/08/15 05:16:35;;;;;;;550.92;61.83;;;;;;;-144.43;100.00;67396.00;5090806;28;20028;-59
2022/08/15 05:19:06;;;;;;;564.13;58.22;;;;;;;-144.43;100.00;67396.00;5073646;28;20032;-60
2022/08/15 05:21:38;;;;;;;536.75;56.17;;;;;;;-144.43;100.00;67396.00;5089688;28;20039;-58
2022/08/15 05:24:06;;;;;;;356.02;33.42;;;;;;;-144.43;100.00;67396.00;5071671;28;20123;-59
2022/08/15 05:26:34;;;;;;;221.43;23.67;;;;;;;-144.43;100.00;67396.00;5078948;28;20048;-58
2022/08/15 05:29:02;;;;;;;170.85;17.88;;;;;;;-144.43;100.00;67396.00;5086169;28;20032;-59
2022/08/15 05:31:31;;;;;;;135.00;15.30;;;;;;;-144.43;100.00;67396.00;5089036;28;20032;-59
2022/08/15 05:34:01;;;;;;;109.70;12.68;;;;;;;-144.43;100.00;67396.00;5090016;28;20031;-58
2022/08/15 05:36:34;;;;;;;111.05;10.00;;;;;;;-144.43;100.00;67396.00;5092336;28;20028;-59
2022/08/15 05:39:24;;;;;;;100.65;8.85;;;;;;;-144.43;100.00;67396.00;5087967;28;20043;-59
2022/08/15 05:42:12;;;;;;;106.78;7.82;;;;;;;-144.43;100.00;67396.00;5094076;28;20115;-58
2022/08/15 05:44:40;;;;;;;109.93;9.38;;;;;;;-144.43;100.00;67396.00;5087913;28;20044;-59
2022/08/15 05:47:12;;;;;;;107.13;8.35;;;;;;;-144.43;100.00;67396.00;5089485;28;20492;-59
2022/08/15 05:49:55;;;;;;;94.38;7.55;;;;;;;-144.43;100.00;67396.00;5086217;28;20479;-58
2022/08/15 05:52:23;;;;;;;89.20;7.20;;;;;;;-144.43;100.00;67396.00;5091131;28;20101;-59
2022/08/15 05:55:10;;;;;;;63.35;5.88;;;;;;;-144.43;100.00;67396.00;5090552;28;20059;-58
2022/08/15 05:57:46;;;;;;;61.90;5.30;;;;;;;-144.43;100.00;67396.00;5091895;28;20103;-59
2022/08/15 06:00:15;;;;;;;45.28;4.88;;;;;;;-144.43;100.00;67396.00;5089424;28;20143;-58
2022/08/15 06:02:52;;;;;;;40.17;5.63;;;;;;;-144.43;100.00;67396.00;5098637;28;20050;-59
2022/08/15 06:05:44;;;;;;;56.83;5.88;;;;;;;-144.43;100.00;67396.00;5093633;28;20032;-59
2022/08/15 06:08:20;;;;;;;52.25;6.07;;;;;;;-144.43;100.00;67396.00;5091912;28;20047;-59
2022/08/15 06:10:55;;;;;;;56.83;6.85;;;;;;;-144.43;100.00;67396.00;5078271;28;20030;-59
2022/08/15 06:13:30;;;;;;;41.40;5.82;;;;;;;-144.43;100.00;67396.00;5082681;28;20054;-58
2022/08/15 06:16:22;;;;;;;44.72;6.18;;;;;;;-144.43;100.00;67396.00;5105982;28;20036;-59
2022/08/15 06:18:54;;;;;;;50.95;5.32;;;;;;;-144.43;100.00;67396.00;5092478;28;20066;-59
2022/08/15 06:22:25;;;;;;;42.42;4.63;;;;;;;-144.43;100.00;67396.00;5089428;28;20028;-59
2022/08/15 06:25:28;;;;;;;35.38;3.92;;;;;;;-144.43;100.00;67396.00;5012546;28;20133;-59
2022/08/15 06:27:58;;;;;;;25.20;3.42;;;;;;;-144.43;100.00;67396.00;5057852;28;20044;-59
2022/08/15 06:30:48;;;;;;;35.70;4.30;;;;;;;-144.43;100.00;67396.00;5074216;28;20046;-59
2022/08/15 06:33:27;;;;;;;42.13;4.78;;;;;;;-144.43;100.00;67396.00;5083493;28;20093;-60
2022/08/15 06:36:37;;;;;;;48.30;5.43;;;;;;;-144.43;100.00;67396.00;5098500;28;20074;-59
2022/08/15 06:39:27;;;;;;;43.35;5.38;;;;;;;-144.43;100.00;67396.00;5074882;28;20033;-59
2022/08/15 06:42:09;;;;;;;48.78;5.20;;;;;;;-144.43;100.00;67396.00;5046850;28;20048;-59
2022/08/15 06:44:51;;;;;;;38.67;4.82;;;;;;;-144.43;100.00;67396.00;5090148;28;20097;-60
2022/08/15 06:47:23;;;;;;;33.70;4.35;;;;;;;-144.43;100.00;67396.00;5087814;28;20125;-59
2022/08/15 06:49:56;;;;;;;39.20;5.13;;;;;;;-144.43;100.00;67396.00;5088210;28;20165;-58
2022/08/15 06:52:26;;;;;;;35.35;4.00;;;;;;;-144.43;100.00;67396.00;5088060;28;20098;-58
2022/08/15 06:54:53;;;;;;;37.58;3.92;;;;;;;-144.43;100.00;67396.00;5090909;28;20050;-59
2022/08/15 06:57:48;;;;;;;39.15;4.68;;;;;;;-144.43;100.00;67396.00;5091105;28;20126;-59
2022/08/15 07:00:21;;;;;;;35.65;3.88;;;;;;;-144.43;100.00;67396.00;5089651;28;20130;-60
2022/08/15 07:03:22;;;;;;;32.55;4.40;;;;;;;-144.43;100.00;67396.00;5089762;28;20040;-60
2022/08/15 07:05:54;;;;;;;43.53;4.50;;;;;;;-144.43;100.00;67396.00;5090462;28;20044;-61
2022/08/15 07:08:36;;;;;;;48.47;5.50;;;;;;;-144.43;100.00;67396.00;5099934;28;20115;-60
2022/08/15 07:11:30;;;;;;;58.13;6.13;;;;;;;-144.43;100.00;67396.00;5089902;28;20086;-60
2022/08/15 07:14:07;;;;;;;75.03;6.80;;;;;;;-144.43;100.00;67396.00;5085787;28;20040;-60
2022/08/15 07:17:02;;;;;;;88.20;8.18;;;;;;;-144.43;100.00;67396.00;5086888;28;20028;-60
2022/08/15 07:19:29;;;;;;;84.80;8.68;;;;;;;-144.43;100.00;67396.00;5089832;28;20039;-59
2022/08/15 07:22:07;;;;;;;94.82;9.00;;;;;;;-144.43;100.00;67396.00;5076351;28;20035;-58
2022/08/15 07:24:49;;;;;;;90.68;10.35;;;;;;;-144.43;100.00;67396.00;5090273;28;20032;-58
2022/08/15 07:27:24;;;;;;;121.10;10.65;;;;;;;-144.43;100.00;67396.00;5074504;28;20035;-59
2022/08/15 07:30:19;;;;;;;117.97;10.75;;;;;;;-144.43;100.00;67396.00;5090427;28;20028;-59
2022/08/15 07:32:52;;;;;;;129.68;11.95;;;;;;;-144.43;100.00;67396.00;5090304;28;20044;-59
2022/08/15 07:35:31;;;;;;;155.13;13.93;;;;;;;-144.43;100.00;67396.00;5073376;28;20119;-59
2022/08/15 07:38:07;;;;;;;165.38;15.57;;;;;;;-144.43;100.00;67396.00;5074370;28;20039;-59
2022/08/15 07:40:43;;;;;;;195.57;15.83;;;;;;;-144.43;100.00;67396.00;5091059;28;20478;-59
2022/08/15 07:43:28;;;;;;;192.25;17.27;;;;;;;-144.43;100.00;67396.00;5084459;28;20032;-59
2022/08/15 07:46:13;;;;;;;215.50;21.00;;;;;;;-144.43;100.00;67396.00;5096069;28;20032;-59
2022/08/15 07:48:42;;;;;;;217.05;20.92;;;;;;;-144.43;100.00;67396.00;5094027;28;20036;-59
2022/08/15 07:51:27;;;;;;;198.40;19.63;;;;;;;-144.43;100.00;67396.00;5078710;28;20028;-59
2022/08/15 07:54:03;;;;;;;253.82;22.10;;;;;;;-144.43;100.00;67396.00;5094151;28;20509;-59
2022/08/15 07:56:52;;;;;;;218.13;22.30;;;;;;;-144.43;100.00;67396.00;5073622;28;20074;-59
2022/08/15 07:59:24;;;;;;;233.80;23.10;;;;;;;-144.43;100.00;67396.00;5089716;28;20032;-60
2022/08/15 08:02:13;;;;;;;219.32;21.58;;;;;;;-144.43;100.00;67396.00;5078050;28;20071;-59
2022/08/15 08:04:41;;;;;;;199.13;20.77;;;;;;;-144.43;100.00;67396.00;5094951;28;20371;-60
2022/08/15 08:07:23;;;;;;;216.80;20.98;;;;;;;-144.43;100.00;67396.00;5079157;28;20036;-59
2022/08/15 08:09:56;;;;;;;174.50;18.98;;;;;;;-144.43;100.00;67396.00;5078560;28;20039;-59
2022/08/15 08:12:53;;;;;;;215.00;20.88;;;;;;;-144.43;100.00;67396.00;5093753;28;20081;-60
2022/08/15 08:15:35;;;;;;;188.63;19.40;;;;;;;-144.43;100.00;67396.00;5091034;28;20055;-60
2022/08/15 08:18:31;;;;;;;172.85;17.73;;;;;;;-144.43;100.00;67396.00;5078795;28;20477;-60
2022/08/15 08:21:04;;;;;;;159.43;16.10;;;;;;;-144.43;100.00;67396.00;5093347;28;20036;-59
2022/08/15 08:23:42;;;;;;;134.70;15.32;;;;;;;-144.43;100.00;67396.00;5076506;28;20036;-59
2022/08/15 08:26:27;;;;;;;142.65;14.55;;;;;;;-144.43;100.00;67396.00;5087147;28;20036;-59
2022/08/15 08:29:14;;;;;;;133.68;14.20;;;;;;;-144.43;100.00;67396.00;5086664;28;20111;-60
2022/08/15 08:31:47;;;;;;;120.60;14.13;;;;;;;-144.43;100.00;67396.00;5076524;28;20042;-59
2022/08/15 08:34:39;;;;;;;102.00;11.48;;;;;;;-144.43;100.00;67396.00;5087566;28;20509;-59
2022/08/15 08:37:20;;;;;;;95.43;12.18;;;;;;;-144.43;100.00;67396.00;5088495;28;20440;-59
2022/08/15 08:39:49;;;;;;;114.18;11.00;;;;;;;-144.43;100.00;67396.00;5077494;28;20482;-60
2022/08/15 08:42:28;;;;;;;99.82;10.68;;;;;;;-144.43;100.00;67396.00;5087117;28;20078;-59
2022/08/15 08:45:17;;;;;;;85.07;9.07;;;;;;;-144.43;100.00;67396.00;5086789;28;20036;-59
2022/08/15 08:48:04;;;;;;;71.93;9.43;;;;;;;-144.43;100.00;67396.00;5091331;28;20113;-59
2022/08/15 08:50:46;;;;;;;76.68;9.10;;;;;;;-144.43;100.00;67396.00;5083280;28;20038;-59
2022/08/15 08:53:32;;;;;;;77.28;8.10;;;;;;;-144.43;100.00;67396.00;5077980;28;20041;-58
2022/08/15 08:56:25;;;;;;;63.58;7.20;;;;;;;-144.43;100.00;67396.00;5078592;28;20036;-60
2022/08/15 08:59:05;;;;;;;56.65;7.65;;;;;;;-144.43;100.00;67396.00;5094102;28;20396;-59
2022/08/15 09:01:35;;;;;;;62.47;7.20;;;;;;;-144.43;100.00;67396.00;5077033;28;20094;-59
2022/08/15 09:04:19;;;;;;;58.38;6.75;;;;;;;-144.43;100.00;67396.00;5088633;28;20074;-60
2022/08/15 09:06:49;;;;;;;51.03;6.72;;;;;;;-144.43;100.00;67396.00;5085101;28;20077;-58
2022/08/15 09:09:34;;;;;;;55.50;6.65;;;;;;;-144.43;100.00;67396.00;5078175;28;20036;-60
2022/08/15 09:12:04;;;;;;;60.53;6.80;;;;;;;-144.43;100.00;67396.00;5078803;28;20082;-59
2022/08/15 09:14:34;;;;;;;55.25;6.80;;;;;;;-144.43;100.00;67396.00;5093408;28;20028;-60
2022/08/15 09:17:10;;;;;;;62.70;7.38;;;;;;;-144.43;100.00;67396.00;5093579;28;20086;-59
2022/08/15 09:19:58;;;;;;;55.47;7.20;;;;;;;-144.43;100.00;67396.00;5076687;28;20037;-60
2022/08/15 09:22:25;;;;;;;62.13;6.88;;;;;;;-144.43;100.00;67396.00;5084787;28;20029;-60
2022/08/15 09:24:53;;;;;;;89.68;8.90;;;;;;;-144.43;100.00;67396.00;5084420;28;20024;-60
2022/08/15 09:27:22;;;;;;;61.47;7.78;;;;;;;-144.43;100.00;67396.00;5083840;28;20035;-60
2022/08/15 09:30:03;;;;;;;56.58;7.68;;;;;;;-144.43;100.00;67396.00;5076149;28;20028;-60
2022/08/15 09:32:35;;;;;;;59.40;7.70;;;;;;;-144.43;100.00;67396.00;5092846;28;20069;-60
2022/08/15 09:35:23;;;;;;;66.18;7.80;;;;;;;-144.43;100.00;67396.00;5079205;28;20029;-60
2022/08/15 09:38:31;;;;;;;64.63;8.32;;;;;;;-144.43;100.00;67396.00;5076305;28;20119;-60
2022/08/15 09:41:27;;;;;;;56.13;8.05;;;;;;;-144.43;100.00;67396.00;5092924;28;20098;-59
2022/08/15 09:44:06;;;;;;;71.55;9.13;;;;;;;-144.43;100.00;67396.00;5085077;28;20028;-59
2022/08/15 09:47:08;;;;;;;66.78;8.23;;;;;;;-144.43;100.00;67396.00;5092979;28;20043;-60
2022/08/15 09:49:41;;;;;;;59.03;8.38;;;;;;;-144.43;100.00;67396.00;5109061;28;20039;-59
2022/08/15 09:52:23;;;;;;;59.63;8.25;;;;;;;-144.43;100.00;67396.00;5095352;28;20044;-60
2022/08/15 09:54:56;;;;;;;65.13;8.45;;;;;;;-144.43;100.00;67396.00;5087821;28;20036;-59
2022/08/15 09:57:29;;;;;;;93.97;9.50;;;;;;;-144.43;100.00;67396.00;5089451;28;20032;-59
2022/08/15 10:00:16;;;;;;;72.95;8.93;;;;;;;-144.43;100.00;67396.00;5077051;28;20036;-59
2022/08/15 10:02:45;;;;;;;90.32;9.52;;;;;;;-144.43;100.00;67396.00;5092226;28;20048;-59
2022/08/15 10:05:29;;;;;;;81.70;9.20;;;;;;;-144.43;100.00;67396.00;5077625;28;20145;-60
2022/08/15 10:08:01;;;;;;;79.15;10.10;;;;;;;-144.43;100.00;67396.00;5076988;28;20032;-61
2022/08/15 10:10:37;;;;;;;100.30;11.15;;;;;;;-144.43;100.00;67396.00;5092698;28;20489;-60
2022/08/15 10:13:07;;;;;;;65.65;9.85;;;;;;;-144.43;100.00;67396.00;5084913;28;20085;-60
2022/08/15 10:15:41;;;;;;;84.72;10.75;;;;;;;-144.43;100.00;67396.00;5092384;28;20028;-60
2022/08/15 10:18:29;;;;;;;75.93;9.63;;;;;;;-144.43;100.00;67396.00;5086357;28;20032;-60
2022/08/15 10:20:56;;;;;;;69.22;8.68;;;;;;;-144.43;100.00;67396.00;5085013;28;20131;-58
2022/08/15 10:23:45;;;;;;;70.53;9.48;;;;;;;-144.43;100.00;67396.00;5075784;28;20036;-59
2022/08/15 10:26:24;;;;;;;59.38;8.50;;;;;;;-144.43;100.00;67396.00;5079108;28;20028;-59
2022/08/15 10:29:03;;;;;;;69.15;8.23;;;;;;;-144.43;100.00;67396.00;5092200;28;20405;-59
2022/08/15 10:31:56;;;;;;;92.40;9.75;;;;;;;-144.43;100.00;67396.00;5093185;28;20023;-58
2022/08/15 10:34:38;;;;;;;83.03;10.98;;;;;;;-144.43;100.00;67396.00;5083959;28;20020;-58
2022/08/15 10:37:09;;;;;;;104.95;13.52;;;;;;;-144.43;100.00;67396.00;5086252;28;20032;-58
2022/08/15 10:40:06;;;;;;;85.20;13.98;;;;;;;-144.43;100.00;67396.00;5090308;28;20459;-58
2022/08/15 10:42:58;;;;;;;90.15;15.07;;;;;;;-144.43;100.00;67396.00;5081446;28;20118;-59
2022/08/15 10:45:41;;;;;;;80.95;14.88;;;;;;;-144.43;100.00;67396.00;5047669;28;20411;-58
2022/08/15 10:48:24;;;;;;;79.88;14.70;;;;;;;-144.43;100.00;67396.00;5092174;28;20020;-58
2022/08/15 10:51:08;;;;;;;83.07;12.68;;;;;;;-144.43;100.00;67396.00;5079792;28;20043;-58
2022/08/15 10:54:02;;;;;;;90.07;11.30;;;;;;;-144.43;100.00;67396.00;5088578;28;20117;-58
2022/08/15 10:56:37;;;;;;;104.13;11.50;;;;;;;-144.43;100.00;67396.00;5081095;28;20044;-58
2022/08/15 10:59:18;;;;;;;119.05;11.88;;;;;;;-144.43;100.00;67396.00;5078212;28;20411;-58
2022/08/15 11:01:45;;;;;;;115.30;11.88;;;;;;;-144.43;100.00;67396.00;5088525;28;20104;-58
2022/08/15 11:04:35;;;;;;;103.45;12.02;;;;;;;-144.43;100.00;67396.00;5078660;28;20470;-58
2022/08/15 11:07:20;;;;;;;109.22;11.85;;;;;;;-144.43;100.00;67396.00;5078307;28;20028;-58
2022/08/15 11:09:56;;;;;;;93.40;11.32;;;;;;;-144.43;100.00;67396.00;5088459;28;20097;-59
2022/08/15 11:12:28;;;;;;;110.65;11.40;;;;;;;-144.43;100.00;67396.00;5080115;28;20036;-57
2022/08/15 11:15:00;;;;;;;107.40;10.73;;;;;;;-144.43;100.00;67396.00;5084410;28;20497;-58
2022/08/15 11:17:30;;;;;;;84.93;10.52;;;;;;;-144.43;100.00;67396.00;5094971;28;20081;-58
2022/08/15 11:20:12;;;;;;;79.85;8.77;;;;;;;-144.43;100.00;67396.00;5080157;28;20122;-57
2022/08/15 11:22:51;;;;;;;78.15;9.20;;;;;;;-144.43;100.00;67396.00;5067677;28;20098;-58
2022/08/15 11:25:23;;;;;;;79.03;10.00;;;;;;;-144.43;100.00;67396.00;5091534;28;20509;-58
2022/08/15 11:28:00;;;;;;;63.50;8.07;;;;;;;-144.43;100.00;67396.00;5079056;28;20077;-58
2022/08/15 11:30:29;;;;;;;56.47;7.38;;;;;;;-144.43;100.00;67396.00;5095703;28;20028;-58
2022/08/15 11:33:26;;;;;;;63.00;6.85;;;;;;;-144.43;100.00;67396.00;5082774;28;20115;-58
2022/08/15 11:36:10;;;;;;;60.08;6.93;;;;;;;-144.43;100.00;67396.00;5079471;28;20035;-58
2022/08/15 11:38:49;;;;;;;49.03;6.18;;;;;;;-144.43;100.00;67396.00;5095258;28;20561;-58